Time;durP1;ratioP1;P1;durP2;ratioP2;P2;SDS_P1;SDS_P2;PMS_P1;PMS_P2;Temp;Humidity;BMP_temperature;BMP_pressure;BME280_temperature;BME280_humidity;BME280_pressure;Samples;Min_cycle;Max_cycle;Signal;HPM_P1;HPM_P2
2023/09/22 00:00:11;;;;;;;1.95;1.23;;;;;;;16.56;99.57;99131.25;7385054;19;20390;-65
2023/09/22 00:02:39;;;;;;;5.30;1.30;;;;;;;16.51;99.68;99123.16;7382733;19;20911;-65
2023/09/22 00:05:08;;;;;;;2.88;1.30;;;;;;;16.49;99.74;99119.91;7385164;19;20389;-65
2023/09/22 00:07:35;;;;;;;2.85;1.13;;;;;;;16.44;99.55;99125.22;7382452;19;20767;-65
2023/09/22 00:10:02;;;;;;;2.67;1.25;;;;;;;16.39;99.89;99125.19;7382343;19;20378;-65
2023/09/22 00:12:29;;;;;;;3.08;1.10;;;;;;;16.33;99.87;99132.34;7381636;19;20676;-65
2023/09/22 00:14:57;;;;;;;2.50;0.98;;;;;;;16.27;99.51;99139.50;7383825;19;20368;-66
2023/09/22 00:17:25;;;;;;;2.08;1.10;;;;;;;16.24;99.89;99137.34;7386496;19;20369;-66
2023/09/22 00:19:52;;;;;;;3.33;1.25;;;;;;;16.23;99.62;99130.34;7383468;19;20364;-66
2023/09/22 00:22:18;;;;;;;3.92;1.10;;;;;;;16.20;99.23;99127.38;7381219;19;20360;-66
2023/09/22 00:24:45;;;;;;;2.95;1.40;;;;;;;16.20;99.24;99133.53;7380684;19;20352;-66
2023/09/22 00:27:15;;;;;;;2.00;0.93;;;;;;;16.17;98.77;99131.38;7379548;19;20365;-66
2023/09/22 00:29:42;;;;;;;1.83;1.00;;;;;;;16.17;98.89;99134.06;7378833;19;20919;-66
2023/09/22 00:32:11;;;;;;;3.47;1.00;;;;;;;16.14;98.80;99150.59;7378808;19;20387;-66
2023/09/22 00:34:39;;;;;;;2.95;1.00;;;;;;;16.14;98.79;99160.50;7378937;19;20376;-66
2023/09/22 00:37:06;;;;;;;2.67;0.90;;;;;;;16.12;98.79;99160.72;7380793;19;20875;-65
2023/09/22 00:39:34;;;;;;;1.73;0.85;;;;;;;16.10;98.52;99150.28;7380548;19;20372;-66
2023/09/22 00:42:01;;;;;;;2.60;0.80;;;;;;;16.07;98.52;99150.78;7378559;19;20694;-65
2023/09/22 00:44:29;;;;;;;2.53;1.10;;;;;;;16.09;98.46;99146.00;7377922;19;20359;-65
2023/09/22 00:46:58;;;;;;;2.17;1.00;;;;;;;16.07;98.17;99148.09;7380066;19;20341;-65
2023/09/22 00:49:25;;;;;;;1.90;1.00;;;;;;;16.04;97.43;99148.59;7378355;19;21727;-66
2023/09/22 00:51:52;;;;;;;1.83;0.90;;;;;;;16.01;97.46;99159.78;7379421;19;20369;-65
2023/09/22 00:54:19;;;;;;;1.67;0.80;;;;;;;16.01;97.65;99169.69;7379693;19;20495;-66
2023/09/22 00:56:47;;;;;;;2.15;1.08;;;;;;;15.97;97.39;99161.34;7378126;19;20920;-65
2023/09/22 00:59:15;;;;;;;1.75;0.80;;;;;;;15.97;97.55;99156.00;7377368;19;20348;-65
2023/09/22 01:01:43;;;;;;;2.03;1.00;;;;;;;15.94;97.07;99155.66;7375446;19;20853;-65
2023/09/22 01:04:13;;;;;;;1.73;0.90;;;;;;;15.95;97.50;99162.66;7380124;19;20400;-65
2023/09/22 01:06:43;;;;;;;1.58;0.88;;;;;;;15.94;97.22;99172.56;7376768;19;20396;-65
2023/09/22 01:09:09;;;;;;;2.00;0.98;;;;;;;15.96;97.38;99180.31;7378639;19;20373;-65
2023/09/22 01:11:36;;;;;;;2.38;0.90;;;;;;;15.95;97.14;99168.00;7379124;19;20356;-65
2023/09/22 01:14:03;;;;;;;2.30;1.10;;;;;;;15.94;97.12;99179.75;7378514;19;20368;-65
2023/09/22 01:16:30;;;;;;;1.87;1.00;;;;;;;15.92;97.24;99179.19;7377781;19;20352;-65
2023/09/22 01:18:59;;;;;;;2.42;1.08;;;;;;;15.93;97.43;99186.16;7379115;19;20359;-65
2023/09/22 01:21:30;;;;;;;3.97;1.20;;;;;;;15.89;97.17;99188.50;7377932;19;20360;-65
2023/09/22 01:23:58;;;;;;;2.78;1.10;;;;;;;15.88;97.44;99190.38;7377267;19;20451;-65
2023/09/22 01:26:25;;;;;;;1.90;0.93;;;;;;;15.86;97.34;99187.16;7377668;19;20365;-65
2023/09/22 01:28:52;;;;;;;2.30;1.03;;;;;;;15.85;97.50;99184.72;7380776;19;20380;-65
2023/09/22 01:31:19;;;;;;;3.65;1.20;;;;;;;15.83;97.70;99184.97;7379199;19;20376;-65
2023/09/22 01:33:46;;;;;;;3.05;1.05;;;;;;;15.82;97.44;99179.88;7379727;19;20440;-65
2023/09/22 01:36:14;;;;;;;2.75;1.00;;;;;;;15.80;97.56;99177.44;7376462;19;20892;-65
2023/09/22 01:38:41;;;;;;;2.38;1.10;;;;;;;15.79;97.75;99186.53;7376588;19;20409;-65
2023/09/22 01:41:11;;;;;;;2.47;1.15;;;;;;;15.78;97.30;99184.88;7378881;19;20929;-65
2023/09/22 01:43:38;;;;;;;2.17;0.80;;;;;;;15.76;97.21;99187.00;7379616;19;20507;-65
2023/09/22 01:46:06;;;;;;;2.05;0.90;;;;;;;15.74;97.46;99189.09;7375732;19;20348;-65
2023/09/22 01:48:34;;;;;;;2.10;1.00;;;;;;;15.72;97.51;99191.22;7378665;19;20393;-65
2023/09/22 01:51:04;;;;;;;1.65;0.90;;;;;;;15.68;97.81;99190.06;7378348;19;20380;-66
2023/09/22 01:53:31;;;;;;;2.30;0.95;;;;;;;15.66;97.51;99186.81;7379902;19;20341;-65
2023/09/22 01:55:58;;;;;;;2.42;0.85;;;;;;;15.64;97.68;99186.25;7376601;19;20356;-65
2023/09/22 01:58:25;;;;;;;3.85;1.10;;;;;;;15.62;97.49;99189.19;7375753;19;20352;-66
2023/09/22 02:00:51;;;;;;;1.70;0.80;;;;;;;15.61;97.44;99195.56;7377875;19;20459;-65
2023/09/22 02:03:18;;;;;;;2.40;0.70;;;;;;;15.59;97.09;99203.03;7378188;19;20340;-65
2023/09/22 02:05:46;;;;;;;2.05;0.90;;;;;;;15.59;96.95;99218.25;7378079;19;20487;-65
2023/09/22 02:08:13;;;;;;;2.87;0.87;;;;;;;15.54;96.80;99210.19;7376526;19;20340;-65
2023/09/22 02:10:40;;;;;;;3.85;0.85;;;;;;;15.53;96.63;99212.03;7375100;19;20357;-65
2023/09/22 02:13:09;;;;;;;1.73;0.82;;;;;;;15.55;96.14;99209.09;7377608;19;20388;-66
2023/09/22 02:15:36;;;;;;;1.90;0.83;;;;;;;15.55;95.96;99211.78;7375716;19;20356;-64
2023/09/22 02:18:04;;;;;;;2.50;0.90;;;;;;;15.55;95.25;99217.13;7379224;19;20353;-65
2023/09/22 02:20:31;;;;;;;1.85;0.88;;;;;;;15.56;95.20;99224.09;7377279;19;20400;-65
2023/09/22 02:22:58;;;;;;;2.60;0.90;;;;;;;15.57;95.32;99223.03;7374684;19;20923;-65
2023/09/22 02:25:26;;;;;;;2.63;0.93;;;;;;;15.56;94.96;99221.44;7378672;19;20990;-65
2023/09/22 02:27:55;;;;;;;2.22;0.93;;;;;;;15.56;94.73;99213.41;7378543;19;20361;-65
2023/09/22 02:30:23;;;;;;;3.13;0.93;;;;;;;15.56;94.82;99218.75;7377830;19;21377;-65
2023/09/22 02:32:52;;;;;;;2.80;0.87;;;;;;;15.56;94.35;99226.78;7371458;19;20440;-65
2023/09/22 02:35:21;;;;;;;2.75;0.90;;;;;;;15.53;94.27;99228.06;7381962;19;20368;-65
2023/09/22 02:37:49;;;;;;;1.60;0.80;;;;;;;15.50;94.23;99229.34;7382981;19;20353;-64
2023/09/22 02:40:17;;;;;;;1.60;0.80;;;;;;;15.50;93.98;99240.03;7380921;19;20755;-64
2023/09/22 02:42:44;;;;;;;1.65;0.90;;;;;;;15.50;93.98;99226.69;7376327;19;20378;-64
2023/09/22 02:45:12;;;;;;;1.40;0.70;;;;;;;15.50;93.73;99236.56;7385666;19;20379;-64
2023/09/22 02:47:40;;;;;;;2.10;1.20;;;;;;;15.52;93.59;99226.44;7384944;19;20376;-65
2023/09/22 02:50:10;;;;;;;1.65;0.75;;;;;;;15.52;93.51;99233.66;7383772;19;20368;-64
2023/09/22 02:52:38;;;;;;;1.70;0.73;;;;;;;15.52;93.67;99233.66;7380499;19;20384;-65
2023/09/22 02:55:10;;;;;;;2.00;0.80;;;;;;;15.53;93.80;99240.63;7382203;19;20522;-65
2023/09/22 02:57:38;;;;;;;1.30;0.70;;;;;;;15.49;93.59;99243.78;7381639;19;20356;-64
2023/09/22 03:00:14;;;;;;;2.70;0.70;;;;;;;15.49;93.69;99241.13;7383525;19;20372;-64
2023/09/22 03:02:42;;;;;;;1.93;0.90;;;;;;;15.47;93.58;99234.38;7382880;19;21009;-64
2023/09/22 03:05:10;;;;;;;1.60;0.80;;;;;;;15.49;93.66;99235.78;7384132;19;20384;-64
2023/09/22 03:07:41;;;;;;;2.03;0.87;;;;;;;15.51;93.31;99240.84;7381528;19;20722;-65
2023/09/22 03:10:10;;;;;;;2.60;0.63;;;;;;;15.51;93.32;99238.19;7381420;19;20439;-64
2023/09/22 03:12:38;;;;;;;1.40;0.70;;;;;;;15.53;93.06;99237.94;7379952;19;20372;-65
2023/09/22 03:15:09;;;;;;;1.35;0.70;;;;;;;15.55;93.09;99233.97;7381233;19;20820;-65
2023/09/22 03:17:37;;;;;;;2.63;0.70;;;;;;;15.56;92.72;99232.13;7381316;19;20728;-64
2023/09/22 03:20:12;;;;;;;2.05;0.80;;;;;;;15.56;92.67;99234.81;7381688;19;21002;-65
2023/09/22 03:22:40;;;;;;;2.40;0.80;;;;;;;15.58;92.42;99233.50;7379414;19;20376;-65
2023/09/22 03:25:11;;;;;;;1.70;0.70;;;;;;;15.62;92.24;99231.13;7380674;19;20360;-65
2023/09/22 03:27:39;;;;;;;2.33;0.82;;;;;;;15.65;91.97;99225.31;7382176;19;20394;-64
2023/09/22 03:30:09;;;;;;;1.53;0.80;;;;;;;15.67;91.76;99231.22;7380585;19;20381;-64
2023/09/22 03:32:39;;;;;;;1.50;0.70;;;;;;;15.67;91.77;99231.22;7381483;19;20399;-64
2023/09/22 03:35:08;;;;;;;1.50;0.80;;;;;;;15.69;91.73;99239.81;7381327;19;20381;-64
2023/09/22 03:37:37;;;;;;;1.55;0.70;;;;;;;15.70;91.39;99244.91;7382192;19;20363;-64
2023/09/22 03:40:10;;;;;;;1.73;0.70;;;;;;;15.71;91.37;99229.69;7379812;19;20349;-64
2023/09/22 03:42:37;;;;;;;1.90;0.70;;;;;;;15.69;91.37;99229.13;7380692;19;20447;-65
2023/09/22 03:45:06;;;;;;;2.25;0.77;;;;;;;15.68;91.20;99214.94;7381647;19;20432;-65
2023/09/22 03:47:33;;;;;;;1.90;0.70;;;;;;;15.65;91.51;99211.94;7379863;19;21161;-65
2023/09/22 03:50:00;;;;;;;1.75;0.70;;;;;;;15.64;91.74;99221.00;7383506;19;20368;-65
2023/09/22 03:52:28;;;;;;;2.17;0.77;;;;;;;15.65;91.80;99227.97;7383917;19;20428;-65
2023/09/22 03:54:55;;;;;;;2.25;0.73;;;;;;;15.64;91.39;99224.50;7382085;19;20364;-65
2023/09/22 03:57:22;;;;;;;1.80;0.70;;;;;;;15.65;91.45;99230.66;7382123;19;20367;-65
2023/09/22 03:59:49;;;;;;;1.60;0.80;;;;;;;15.68;91.38;99238.16;7382431;19;20368;-63
2023/09/22 04:02:16;;;;;;;2.90;0.70;;;;;;;15.66;91.20;99224.25;7380491;19;21131;-63
2023/09/22 04:04:43;;;;;;;1.40;0.60;;;;;;;15.67;91.16;99229.34;7382649;19;20372;-64
2023/09/22 04:07:10;;;;;;;2.15;0.60;;;;;;;15.66;91.26;99226.91;7382238;19;20385;-63
2023/09/22 04:09:36;;;;;;;1.58;0.70;;;;;;;15.65;91.03;99242.16;7380787;19;20372;-63
2023/09/22 04:12:03;;;;;;;2.10;0.60;;;;;;;15.63;91.19;99246.13;7376417;19;20494;-63
2023/09/22 04:14:30;;;;;;;1.73;0.65;;;;;;;15.63;91.55;99240.78;7380650;19;21038;-63
2023/09/22 04:16:57;;;;;;;2.45;0.80;;;;;;;15.64;91.42;99227.19;7382623;19;20360;-63
2023/09/22 04:19:24;;;;;;;2.28;0.80;;;;;;;15.64;91.45;99232.53;7383364;19;20348;-63
2023/09/22 04:21:52;;;;;;;1.70;0.73;;;;;;;15.65;91.64;99225.31;7382110;19;20356;-63
2023/09/22 04:24:20;;;;;;;2.58;0.82;;;;;;;15.66;91.68;99224.25;7380985;19;20471;-62
2023/09/22 04:26:49;;;;;;;2.55;0.90;;;;;;;15.67;91.92;99231.22;7379449;19;20806;-62
2023/09/22 04:29:16;;;;;;;2.10;0.80;;;;;;;15.66;91.86;99230.41;7382088;19;20376;-63
2023/09/22 04:31:45;;;;;;;1.52;0.90;;;;;;;15.66;91.97;99234.94;7382495;19;20364;-64
2023/09/22 04:34:12;;;;;;;2.10;0.90;;;;;;;15.68;91.88;99239.00;7383585;19;20351;-64
2023/09/22 04:36:40;;;;;;;2.07;0.80;;;;;;;15.81;92.67;99253.94;7382743;19;20365;-62
2023/09/22 04:39:08;;;;;;;5.55;3.00;;;;;;;16.00;94.22;99250.97;7382677;19;20385;-62
2023/09/22 04:41:35;;;;;;;10.45;7.78;;;;;;;16.11;91.76;99242.06;7382856;19;20373;-62
2023/09/22 04:44:02;;;;;;;3.55;1.30;;;;;;;16.23;92.03;99240.06;7378133;19;20369;-62
2023/09/22 04:46:29;;;;;;;1.60;0.70;;;;;;;16.38;91.41;99244.00;7383030;19;20717;-62
2023/09/22 04:48:55;;;;;;;3.15;1.10;;;;;;;16.40;90.45;99266.75;7383105;19;20909;-61
2023/09/22 04:51:22;;;;;;;2.55;0.85;;;;;;;16.42;89.61;99274.56;7381265;19;20356;-61
2023/09/22 04:53:50;;;;;;;2.10;0.90;;;;;;;16.42;89.77;99280.72;7381950;19;20381;-62
2023/09/22 04:56:17;;;;;;;2.15;0.93;;;;;;;16.41;90.08;99286.34;7380393;19;21121;-62
2023/09/22 04:58:44;;;;;;;2.08;0.90;;;;;;;16.42;89.39;99290.63;7381746;19;20877;-62
2023/09/22 05:01:11;;;;;;;2.85;0.80;;;;;;;16.43;89.44;99300.28;7379100;19;20899;-61
2023/09/22 05:03:39;;;;;;;1.92;0.93;;;;;;;16.42;89.08;99318.19;7378648;19;20360;-62
2023/09/22 05:06:09;;;;;;;2.10;0.80;;;;;;;16.44;89.11;99297.34;7382351;19;20359;-62
2023/09/22 05:08:38;;;;;;;2.13;0.80;;;;;;;16.49;88.27;99288.56;7379547;19;20419;-62
2023/09/22 05:11:07;;;;;;;3.20;0.75;;;;;;;16.50;87.66;99282.16;7380501;19;20361;-62
2023/09/22 05:13:35;;;;;;;2.47;0.90;;;;;;;16.48;87.15;99270.88;7379579;19;20847;-62
2023/09/22 05:16:12;;;;;;;2.15;0.90;;;;;;;16.46;87.46;99262.28;7380921;19;20379;-61
2023/09/22 05:18:39;;;;;;;1.30;0.70;;;;;;;16.45;87.40;99261.50;7381890;19;20364;-61
2023/09/22 05:21:09;;;;;;;2.47;0.95;;;;;;;16.39;86.60;99269.72;7378703;19;20735;-62
2023/09/22 05:23:36;;;;;;;2.42;0.80;;;;;;;16.27;86.45;99281.31;7379581;19;20377;-62
2023/09/22 05:29:38;;;;;;;2.70;1.10;;;;;;;16.10;85.87;99293.91;7381997;19;20333;-62
2023/09/22 05:32:05;;;;;;;3.40;1.20;;;;;;;16.05;86.28;99296.53;7380426;19;20424;-62
2023/09/22 05:34:33;;;;;;;5.72;1.15;;;;;;;16.03;87.00;99298.66;7380743;19;20381;-62
2023/09/22 05:37:03;;;;;;;2.53;1.10;;;;;;;16.09;87.75;99314.53;7379499;19;20369;-62
2023/09/22 05:39:30;;;;;;;2.33;1.00;;;;;;;16.12;87.04;99325.78;7379072;19;20364;-62
2023/09/22 05:41:56;;;;;;;4.97;1.10;;;;;;;16.08;86.62;99338.84;7380700;19;20427;-62
2023/09/22 05:44:23;;;;;;;3.45;1.20;;;;;;;16.07;86.45;99337.22;7384093;19;20364;-62
2023/09/22 05:46:51;;;;;;;4.35;1.20;;;;;;;16.09;87.31;99341.28;7391436;19;20338;-62
2023/09/22 05:49:20;;;;;;;6.33;3.50;;;;;;;16.15;86.86;99355.53;7393354;19;20405;-61
2023/09/22 05:51:48;;;;;;;4.20;2.67;;;;;;;16.20;87.10;99366.31;7392499;19;20383;-62
2023/09/22 05:54:15;;;;;;;2.45;1.10;;;;;;;16.19;86.93;99377.25;7392220;19;20369;-62
2023/09/22 05:56:42;;;;;;;3.72;1.10;;;;;;;16.21;86.64;99375.16;7387706;19;20360;-62
2023/09/22 05:59:09;;;;;;;12.07;5.90;;;;;;;16.20;86.40;99387.72;7390951;19;20908;-61
2023/09/22 06:01:37;;;;;;;14.48;9.20;;;;;;;16.23;86.35;99389.88;7391013;19;20360;-61
2023/09/22 06:04:04;;;;;;;6.38;3.22;;;;;;;16.22;86.15;99380.25;7390519;19;20380;-61
2023/09/22 06:06:32;;;;;;;16.00;8.80;;;;;;;16.18;84.94;99387.16;7389326;19;20985;-61
2023/09/22 06:08:59;;;;;;;22.63;14.10;;;;;;;16.10;85.04;99408.94;7390093;19;20379;-61
2023/09/22 06:11:26;;;;;;;8.40;5.20;;;;;;;16.10;85.16;99419.66;7389390;19;20369;-62
2023/09/22 06:13:53;;;;;;;8.32;4.88;;;;;;;16.09;84.74;99399.31;7391555;19;20344;-61
2023/09/22 06:16:20;;;;;;;7.60;5.10;;;;;;;16.11;84.92;99407.91;7389525;19;20428;-61
2023/09/22 06:18:46;;;;;;;9.40;5.33;;;;;;;16.09;84.78;99429.56;7388012;19;20397;-62
2023/09/22 06:21:14;;;;;;;3.45;1.40;;;;;;;16.08;84.38;99435.94;7384047;19;20341;-62
2023/09/22 06:23:40;;;;;;;2.67;1.40;;;;;;;16.15;84.68;99430.47;7391225;19;20382;-61
2023/09/22 06:26:10;;;;;;;2.75;0.95;;;;;;;16.13;84.26;99418.34;7390182;19;20368;-62
2023/09/22 06:28:41;;;;;;;3.40;1.20;;;;;;;16.11;83.49;99418.63;7388496;19;20904;-61
2023/09/22 06:31:08;;;;;;;3.97;1.50;;;;;;;16.15;83.18;99413.56;7389792;19;20364;-62
2023/09/22 06:33:35;;;;;;;13.80;9.00;;;;;;;16.16;83.17;99407.19;7390110;19;20775;-61
2023/09/22 06:36:04;;;;;;;3.30;1.73;;;;;;;16.15;82.94;99402.88;7390312;19;20359;-61
2023/09/22 06:38:35;;;;;;;3.75;2.08;;;;;;;16.18;82.81;99402.41;7387492;19;20377;-62
2023/09/22 06:41:03;;;;;;;7.72;3.55;;;;;;;16.20;83.17;99406.44;7390363;19;20866;-61
2023/09/22 06:43:31;;;;;;;3.53;1.90;;;;;;;16.21;82.93;99408.06;7390040;19;20462;-61
2023/09/22 06:46:03;;;;;;;2.25;1.17;;;;;;;16.24;82.88;99412.13;7389043;19;20385;-62
2023/09/22 06:48:30;;;;;;;3.17;1.20;;;;;;;16.27;82.93;99416.97;7387897;19;20400;-61
2023/09/22 06:50:58;;;;;;;5.65;3.25;;;;;;;16.29;82.76;99407.66;7389178;19;20444;-61
2023/09/22 06:53:26;;;;;;;1.80;1.00;;;;;;;16.35;82.76;99423.81;7390174;19;20903;-62
2023/09/22 06:56:06;;;;;;;4.00;1.20;;;;;;;16.41;82.58;99418.28;7389890;19;20700;-61
2023/09/22 06:58:35;;;;;;;2.72;1.00;;;;;;;16.47;81.89;99424.53;7390693;19;20799;-62
2023/09/22 07:01:16;;;;;;;2.28;1.20;;;;;;;16.56;81.86;99433.75;7389560;19;20368;-61
2023/09/22 07:03:45;;;;;;;2.25;1.00;;;;;;;16.67;81.08;99442.75;7387221;19;20728;-62
2023/09/22 07:06:15;;;;;;;3.63;1.27;;;;;;;16.77;81.28;99434.06;7387613;19;20390;-61
2023/09/22 07:08:45;;;;;;;10.18;6.15;;;;;;;16.83;80.18;99425.03;7387940;19;20405;-61
2023/09/22 07:11:13;;;;;;;8.80;5.40;;;;;;;16.83;79.91;99422.38;7388834;19;20408;-60
2023/09/22 07:13:40;;;;;;;5.00;2.80;;;;;;;16.83;80.08;99412.50;7388904;19;20366;-62
2023/09/22 07:16:08;;;;;;;10.00;5.22;;;;;;;16.86;80.71;99416.53;7387037;19;20372;-61
2023/09/22 07:18:36;;;;;;;2.03;0.90;;;;;;;16.86;79.72;99430.72;7389604;19;20366;-61
2023/09/22 07:21:03;;;;;;;3.10;1.08;;;;;;;16.85;79.06;99439.84;7395484;19;20424;-61
2023/09/22 07:23:32;;;;;;;5.25;3.30;;;;;;;16.90;79.27;99449.81;7395519;19;20372;-61
2023/09/22 07:26:09;;;;;;;2.50;1.10;;;;;;;16.94;79.31;99466.19;7391962;19;20337;-61
2023/09/22 07:28:36;;;;;;;2.25;1.00;;;;;;;17.03;80.10;99489.63;7396393;19;20880;-62
2023/09/22 07:31:11;;;;;;;4.53;2.30;;;;;;;17.07;79.56;99485.41;7396954;19;20352;-61
2023/09/22 07:33:39;;;;;;;3.67;1.80;;;;;;;17.12;80.02;99477.41;7395216;19;20336;-61
2023/09/22 07:36:07;;;;;;;4.25;1.52;;;;;;;17.12;79.45;99477.41;7396895;19;20389;-62
2023/09/22 07:38:34;;;;;;;2.85;1.40;;;;;;;17.18;79.32;99474.81;7395169;19;20365;-61
2023/09/22 07:41:02;;;;;;;4.50;2.35;;;;;;;17.16;78.22;99461.66;7396433;19;20822;-61
2023/09/22 07:43:29;;;;;;;2.92;1.80;;;;;;;17.22;77.57;99457.19;7394670;19;20343;-59
2023/09/22 07:45:57;;;;;;;3.20;1.42;;;;;;;17.27;77.18;99465.28;7392638;19;20368;-61
2023/09/22 07:48:25;;;;;;;15.95;9.60;;;;;;;17.24;76.28;99457.75;7396309;19;20416;-62
2023/09/22 07:50:52;;;;;;;3.25;1.52;;;;;;;17.33;76.35;99466.97;7393709;19;20461;-61
2023/09/22 07:53:20;;;;;;;6.45;3.30;;;;;;;17.39;75.86;99457.94;7396585;19;20353;-61
2023/09/22 07:55:48;;;;;;;7.10;4.10;;;;;;;17.49;75.17;99455.38;7395001;19;20450;-61
2023/09/22 07:58:14;;;;;;;7.65;4.50;;;;;;;17.60;74.99;99458.16;7396728;19;20432;-62
2023/09/22 08:00:46;;;;;;;3.30;1.45;;;;;;;17.73;75.48;99465.81;7394847;19;20368;-62
2023/09/22 08:03:14;;;;;;;6.13;1.63;;;;;;;17.78;73.46;99473.09;7394981;19;20389;-61
2023/09/22 08:05:41;;;;;;;3.00;1.10;;;;;;;17.75;72.12;99490.53;7392476;19;20383;-62
2023/09/22 08:08:10;;;;;;;5.68;2.42;;;;;;;17.73;72.54;99498.81;7396666;19;20849;-61
2023/09/22 08:10:38;;;;;;;2.10;1.10;;;;;;;17.69;73.24;99513.78;7394846;19;20363;-61
2023/09/22 08:13:07;;;;;;;3.43;1.27;;;;;;;17.61;72.86;99510.72;7395971;19;20444;-62
2023/09/22 08:15:37;;;;;;;4.38;1.90;;;;;;;17.50;72.44;99525.88;7393516;19;20424;-62
2023/09/22 08:18:06;;;;;;;4.85;1.90;;;;;;;17.40;72.94;99521.19;7394369;19;20730;-61
2023/09/22 08:20:34;;;;;;;2.75;1.45;;;;;;;17.39;73.66;99529.50;7393554;19;20375;-62
2023/09/22 08:23:01;;;;;;;3.47;1.27;;;;;;;17.25;73.77;99518.31;7394520;19;20730;-61
2023/09/22 08:25:28;;;;;;;4.30;1.20;;;;;;;17.24;74.57;99514.84;7389918;19;20434;-61
2023/09/22 08:27:56;;;;;;;3.40;1.02;;;;;;;17.26;74.77;99530.69;7395480;19;20902;-61
2023/09/22 08:30:24;;;;;;;2.50;0.90;;;;;;;17.20;74.62;99547.75;7392699;19;20890;-61
2023/09/22 08:32:50;;;;;;;5.78;2.33;;;;;;;17.21;74.64;99546.66;7391609;19;20356;-61
2023/09/22 08:35:17;;;;;;;4.65;1.98;;;;;;;17.24;74.48;99543.50;7392291;19;20372;-61
2023/09/22 08:37:44;;;;;;;4.55;1.90;;;;;;;17.32;74.38;99545.78;7393673;19;20361;-61
2023/09/22 08:40:15;;;;;;;3.75;1.20;;;;;;;17.38;73.84;99547.44;7391613;19;20374;-61
2023/09/22 08:42:44;;;;;;;2.85;1.50;;;;;;;17.44;73.32;99543.78;7392264;19;20878;-62
2023/09/22 08:45:12;;;;;;;3.17;1.15;;;;;;;17.50;72.53;99542.78;7391175;19;20397;-61
2023/09/22 08:47:40;;;;;;;2.83;1.27;;;;;;;17.60;72.71;99535.94;7392793;19;20390;-60
2023/09/22 08:50:10;;;;;;;3.70;1.33;;;;;;;17.65;72.07;99530.63;7391866;19;21164;-61
2023/09/22 08:52:38;;;;;;;4.65;1.80;;;;;;;17.71;71.02;99532.31;7393514;19;20360;-61
2023/09/22 08:55:08;;;;;;;23.48;13.95;;;;;;;17.84;71.27;99531.16;7393422;19;20755;-61
2023/09/22 08:57:35;;;;;;;5.77;1.80;;;;;;;17.90;70.97;99530.16;7390543;19;20487;-61
2023/09/22 09:00:10;;;;;;;7.33;3.80;;;;;;;18.00;70.98;99545.53;7391114;19;20436;-61
2023/09/22 09:02:39;;;;;;;8.30;4.80;;;;;;;18.07;70.77;99546.16;7392485;19;20721;-60
2023/09/22 09:05:27;;;;;;;4.05;1.88;;;;;;;18.19;70.77;99544.16;7390934;19;20390;-61
2023/09/22 09:07:55;;;;;;;5.30;1.80;;;;;;;18.29;70.63;99536.16;7392926;19;20356;-60
2023/09/22 09:10:33;;;;;;;5.82;2.50;;;;;;;18.49;70.98;99527.50;7391914;19;20386;-62
2023/09/22 09:13:01;;;;;;;4.93;3.40;;;;;;;18.65;69.98;99523.03;7391072;19;20366;-62
2023/09/22 09:15:49;;;;;;;7.50;3.90;;;;;;;18.79;68.02;99530.72;7391698;19;20368;-62
2023/09/22 09:18:19;;;;;;;10.75;6.80;;;;;;;18.74;67.11;99548.38;7391039;19;20375;-62
2023/09/22 09:20:48;;;;;;;3.15;1.10;;;;;;;18.71;66.40;99548.88;7384895;19;20369;-60
2023/09/22 09:23:20;;;;;;;9.37;4.30;;;;;;;18.71;67.69;99553.47;7392008;19;20407;-60
2023/09/22 09:25:56;;;;;;;4.63;2.40;;;;;;;18.57;67.52;99577.22;7392961;19;20356;-62
2023/09/22 09:28:24;;;;;;;2.22;1.08;;;;;;;18.55;67.50;99565.94;7390309;19;20375;-61
2023/09/22 09:30:58;;;;;;;9.80;5.45;;;;;;;18.50;68.94;99566.69;7390113;19;20368;-62
2023/09/22 09:33:31;;;;;;;4.03;1.20;;;;;;;18.47;68.89;99566.41;7391453;19;20386;-61
2023/09/22 09:35:59;;;;;;;2.33;0.70;;;;;;;18.44;69.57;99558.84;7391107;19;20370;-62
2023/09/22 09:38:27;;;;;;;2.30;0.80;;;;;;;18.42;69.21;99552.94;7389946;19;20708;-61
2023/09/22 09:40:58;;;;;;;2.45;1.10;;;;;;;18.38;68.88;99541.06;7388747;19;20897;-61
2023/09/22 09:43:25;;;;;;;3.22;0.73;;;;;;;18.39;69.40;99537.34;7391228;19;20784;-62
2023/09/22 09:45:57;;;;;;;3.22;0.80;;;;;;;18.42;70.02;99523.38;7386404;19;20448;-61
2023/09/22 09:48:26;;;;;;;2.90;0.95;;;;;;;18.47;69.18;99526.94;7381347;19;20363;-61
2023/09/22 09:50:57;;;;;;;1.92;0.90;;;;;;;18.57;68.31;99526.19;7380063;19;20368;-61
2023/09/22 09:53:42;;;;;;;1.83;0.68;;;;;;;18.68;67.62;99525.22;7386430;19;20375;-62
2023/09/22 09:56:17;;;;;;;3.40;0.90;;;;;;;18.85;68.97;99529.66;7382946;19;20386;-62
2023/09/22 09:58:48;;;;;;;3.08;0.88;;;;;;;19.04;68.61;99524.69;7386703;19;20412;-62
2023/09/22 10:01:17;;;;;;;2.13;0.60;;;;;;;19.16;67.38;99536.06;7386887;19;20411;-61
2023/09/22 10:03:45;;;;;;;1.73;0.70;;;;;;;19.35;67.63;99539.91;7384789;19;20352;-62
2023/09/22 10:06:15;;;;;;;2.90;0.82;;;;;;;19.54;67.96;99536.78;7390846;19;20356;-62
2023/09/22 10:08:42;;;;;;;3.35;0.80;;;;;;;19.88;67.51;99537.22;7391036;19;20470;-62
2023/09/22 10:11:12;;;;;;;1.52;0.70;;;;;;;19.93;64.52;99531.84;7388680;19;20877;-62
2023/09/22 10:13:39;;;;;;;2.42;0.80;;;;;;;19.92;63.65;99527.53;7389554;19;20345;-62
2023/09/22 10:16:08;;;;;;;2.80;1.00;;;;;;;19.89;64.20;99538.00;7387112;19;20352;-62
2023/09/22 10:18:48;;;;;;;1.80;0.60;;;;;;;19.80;63.46;99556.56;7391817;19;20364;-61
2023/09/22 10:21:30;;;;;;;2.78;0.80;;;;;;;19.80;64.22;99556.56;7389279;19;20353;-62
2023/09/22 10:24:26;;;;;;;2.78;0.80;;;;;;;19.74;63.05;99555.75;7390684;19;20361;-62
2023/09/22 10:26:55;;;;;;;2.42;0.60;;;;;;;19.73;63.25;99534.47;7389157;19;20355;-62
2023/09/22 10:29:35;;;;;;;3.22;0.70;;;;;;;19.79;63.74;99530.72;7389904;19;20348;-62
2023/09/22 10:32:17;;;;;;;2.25;0.80;;;;;;;19.84;62.59;99552.25;7389579;19;20364;-62
2023/09/22 10:34:49;;;;;;;1.80;0.60;;;;;;;19.78;62.19;99556.00;7390194;19;20369;-62
2023/09/22 10:37:18;;;;;;;2.07;0.80;;;;;;;19.75;61.08;99570.00;7390483;19;20815;-62
2023/09/22 10:39:49;;;;;;;1.98;0.80;;;;;;;19.79;61.16;99570.28;7390832;19;20881;-62
2023/09/22 10:42:17;;;;;;;2.90;0.60;;;;;;;19.80;61.49;99556.56;7388337;19;20690;-62
2023/09/22 10:45:01;;;;;;;2.23;0.53;;;;;;;19.82;61.31;99549.03;7390663;19;20369;-63
2023/09/22 10:47:49;;;;;;;1.92;0.50;;;;;;;19.96;62.50;99546.66;7390067;19;20364;-62
2023/09/22 10:50:22;;;;;;;1.92;0.70;;;;;;;20.08;61.84;99541.03;7388724;19;20372;-62
2023/09/22 10:53:02;;;;;;;2.28;0.70;;;;;;;20.10;61.02;99542.41;7390045;19;20743;-62
2023/09/22 10:55:37;;;;;;;3.30;0.60;;;;;;;20.17;59.98;99544.81;7393270;19;20352;-61
2023/09/22 10:58:06;;;;;;;2.63;0.75;;;;;;;20.36;59.91;99550.50;7399096;19;20706;-62
2023/09/22 11:00:39;;;;;;;3.83;0.88;;;;;;;20.53;59.85;99542.97;7398423;19;20858;-61
2023/09/22 11:03:11;;;;;;;2.33;0.60;;;;;;;20.77;58.55;99542.47;7396882;19;20440;-62
2023/09/22 11:05:40;;;;;;;2.17;0.52;;;;;;;20.93;58.09;99540.53;7391284;19;21105;-62
2023/09/22 11:08:14;;;;;;;1.52;0.60;;;;;;;21.02;56.71;99552.41;7397701;19;20356;-62
2023/09/22 11:10:46;;;;;;;2.35;0.60;;;;;;;21.13;56.23;99545.13;7397799;19;20352;-62
2023/09/22 11:13:14;;;;;;;2.20;0.80;;;;;;;20.98;56.59;99552.16;7395019;19;20428;-61
2023/09/22 11:15:59;;;;;;;1.90;0.57;;;;;;;20.80;57.13;99551.88;7397173;19;20376;-62
2023/09/22 11:18:28;;;;;;;1.70;0.50;;;;;;;20.63;57.42;99568.31;7397489;19;20394;-62
2023/09/22 11:21:13;;;;;;;2.47;0.80;;;;;;;20.79;58.04;99566.47;7395122;19;20332;-62
2023/09/22 11:23:41;;;;;;;1.50;0.50;;;;;;;21.28;58.13;99563.16;7397500;19;20382;-62
2023/09/22 11:26:10;;;;;;;3.03;0.60;;;;;;;21.64;57.31;99566.56;7393726;19;20341;-62
2023/09/22 11:28:45;;;;;;;1.90;0.50;;;;;;;22.01;55.36;99580.72;7395766;19;20357;-62
2023/09/22 11:31:20;;;;;;;0.98;0.45;;;;;;;22.24;52.82;99590.88;7397573;19;20351;-62
2023/09/22 11:33:59;;;;;;;2.00;0.60;;;;;;;22.13;50.47;99583.91;7394791;19;20695;-62
2023/09/22 11:36:26;;;;;;;2.13;0.50;;;;;;;22.07;50.97;99602.00;7394731;19;20662;-62
2023/09/22 11:38:56;;;;;;;2.42;0.50;;;;;;;21.84;51.08;99598.06;7396485;19;20360;-62
2023/09/22 11:41:23;;;;;;;1.60;0.43;;;;;;;21.71;51.71;99587.88;7395000;19;20888;-61
2023/09/22 11:43:54;;;;;;;3.42;0.40;;;;;;;21.75;51.63;99589.72;7392839;19;20377;-62
2023/09/22 11:46:28;;;;;;;2.83;0.50;;;;;;;21.89;52.40;99600.75;7383780;19;21030;-62